Time;durP1;ratioP1;P1;durP2;ratioP2;P2;SDS_P1;SDS_P2;PMS_P1;PMS_P2;Temp;Humidity;BMP_temperature;BMP_pressure;BME280_temperature;BME280_humidity;BME280_pressure;Samples;Min_cycle;Max_cycle;Signal;HPM_P1;HPM_P2
2024/01/21 00:02:13;;;;;;;9.93;6.18;;;1.30;99.90;;;;;;5146506;27;20117;-63
2024/01/21 00:04:39;;;;;;;11.10;6.78;;;1.30;99.90;;;;;;5142639;27;20031;-63
2024/01/21 00:07:04;;;;;;;12.27;6.93;;;1.30;99.90;;;;;;5141607;27;20027;-63
2024/01/21 00:09:30;;;;;;;10.77;6.88;;;1.30;99.90;;;;;;5140660;27;20061;-63
2024/01/21 00:11:56;;;;;;;11.38;7.63;;;1.30;99.90;;;;;;5148559;27;20824;-64
2024/01/21 00:14:22;;;;;;;11.18;7.22;;;1.30;99.90;;;;;;5147412;27;20418;-64
2024/01/21 00:16:47;;;;;;;11.13;7.03;;;1.30;99.90;;;;;;5146595;27;20042;-63
2024/01/21 00:19:13;;;;;;;12.30;6.88;;;1.30;99.90;;;;;;5148356;27;20047;-63
2024/01/21 00:21:39;;;;;;;12.55;6.97;;;1.30;99.90;;;;;;5152700;27;20665;-63
2024/01/21 00:24:06;;;;;;;13.45;7.32;;;1.30;99.90;;;;;;5147218;27;20339;-63
2024/01/21 00:26:32;;;;;;;12.07;7.53;;;1.20;99.90;;;;;;5149959;27;20497;-63
2024/01/21 00:29:00;;;;;;;12.82;7.05;;;1.20;99.90;;;;;;5141310;27;20039;-63
2024/01/21 00:31:29;;;;;;;12.10;7.25;;;1.20;99.90;;;;;;5137398;27;20365;-63
2024/01/21 00:33:55;;;;;;;13.57;6.93;;;1.20;99.90;;;;;;5148004;27;20495;-63
2024/01/21 00:36:21;;;;;;;14.43;7.00;;;1.20;99.90;;;;;;5154135;27;20045;-63
2024/01/21 00:38:47;;;;;;;11.07;6.78;;;1.20;99.90;;;;;;5151032;27;20534;-63
2024/01/21 00:41:14;;;;;;;11.23;6.53;;;1.20;99.90;;;;;;5120328;27;20030;-63
2024/01/21 00:43:40;;;;;;;9.50;6.25;;;1.30;99.90;;;;;;5147255;27;20034;-63
2024/01/21 00:46:07;;;;;;;10.57;6.80;;;1.30;99.90;;;;;;5148653;27;20066;-63
2024/01/21 00:48:34;;;;;;;13.15;7.03;;;1.30;99.90;;;;;;5140173;27;20043;-63
2024/01/21 00:51:00;;;;;;;9.30;6.28;;;1.30;99.90;;;;;;5146189;27;20042;-63
2024/01/21 00:53:26;;;;;;;9.43;6.20;;;1.40;99.90;;;;;;5135917;27;20067;-64
2024/01/21 00:55:52;;;;;;;10.25;7.25;;;1.40;99.90;;;;;;5147469;27;20042;-63
2024/01/21 00:58:18;;;;;;;12.65;7.03;;;1.40;99.90;;;;;;5147379;27;20038;-63
2024/01/21 01:00:44;;;;;;;11.55;6.45;;;1.40;99.90;;;;;;5144090;27;20042;-63
2024/01/21 01:03:10;;;;;;;12.07;6.60;;;1.50;99.90;;;;;;5143581;27;20114;-63
2024/01/21 01:05:36;;;;;;;13.98;6.72;;;1.40;99.90;;;;;;5131752;27;20871;-63
2024/01/21 01:08:02;;;;;;;11.77;7.57;;;1.40;99.90;;;;;;5147389;27;20042;-63
2024/01/21 01:10:28;;;;;;;10.68;6.93;;;1.40;99.90;;;;;;5146935;27;20031;-63
2024/01/21 01:12:54;;;;;;;12.60;7.57;;;1.40;99.90;;;;;;5144338;27;20517;-63
2024/01/21 01:15:20;;;;;;;10.43;7.22;;;1.40;99.90;;;;;;5140541;27;20095;-63
2024/01/21 01:17:47;;;;;;;13.45;7.07;;;1.40;99.90;;;;;;5148743;27;20043;-63
2024/01/21 01:20:13;;;;;;;12.50;7.75;;;1.40;99.90;;;;;;5145072;27;20512;-62
2024/01/21 01:22:39;;;;;;;11.85;6.75;;;1.40;99.90;;;;;;5134543;27;20574;-64
2024/01/21 01:25:05;;;;;;;10.88;7.13;;;1.50;99.90;;;;;;5131837;27;20074;-63
2024/01/21 01:27:31;;;;;;;13.50;7.10;;;1.50;99.90;;;;;;5141465;27;20058;-64
2024/01/21 01:29:57;;;;;;;11.88;6.97;;;1.50;99.90;;;;;;5139509;27;20567;-62
2024/01/21 01:32:22;;;;;;;10.50;6.88;;;1.60;99.90;;;;;;5137114;27;20100;-64
2024/01/21 01:34:49;;;;;;;13.60;7.38;;;1.60;99.90;;;;;;5143405;27;20035;-63
2024/01/21 01:37:15;;;;;;;9.98;6.07;;;1.60;99.90;;;;;;5137543;27;20524;-64
2024/01/21 01:39:41;;;;;;;8.70;5.82;;;1.50;99.90;;;;;;5144090;27;20436;-63
2024/01/21 01:42:07;;;;;;;9.95;6.40;;;1.60;99.90;;;;;;5139731;27;20045;-63
2024/01/21 01:44:33;;;;;;;10.30;6.03;;;1.60;99.90;;;;;;5144763;27;20030;-64
2024/01/21 01:46:59;;;;;;;9.38;6.30;;;1.60;99.90;;;;;;5155900;27;20110;-63
2024/01/21 01:49:26;;;;;;;10.35;6.18;;;1.60;99.90;;;;;;5132549;27;20546;-63
2024/01/21 01:51:53;;;;;;;11.60;7.47;;;1.60;99.90;;;;;;5127688;27;20159;-63
2024/01/21 01:54:23;;;;;;;10.43;6.20;;;1.70;99.90;;;;;;5143692;27;20490;-63
2024/01/21 01:56:48;;;;;;;;;;;1.60;99.90;;;;;;5145912;27;20038;-63
2024/01/21 01:59:18;;;;;;;12.98;6.82;;;1.60;99.90;;;;;;5141417;27;20386;-63
2024/01/21 02:01:44;;;;;;;10.75;6.88;;;1.50;99.90;;;;;;5131770;27;20081;-64
2024/01/21 02:04:11;;;;;;;10.98;6.65;;;1.50;99.90;;;;;;5151954;27;20039;-63
2024/01/21 02:06:38;;;;;;;10.85;6.30;;;1.50;99.90;;;;;;5131618;27;20043;-63
2024/01/21 02:09:05;;;;;;;11.70;6.85;;;1.50;99.90;;;;;;5127604;27;20092;-63
2024/01/21 02:11:31;;;;;;;15.57;6.97;;;1.40;99.90;;;;;;5150632;27;20037;-63
2024/01/21 02:13:57;;;;;;;10.30;6.55;;;1.40;99.90;;;;;;5139685;27;20136;-63
2024/01/21 02:16:23;;;;;;;11.10;7.05;;;1.50;99.90;;;;;;5151900;27;20042;-63
2024/01/21 02:18:50;;;;;;;8.93;5.93;;;1.50;99.90;;;;;;5118250;27;20039;-64
2024/01/21 02:21:16;;;;;;;8.57;5.65;;;1.50;99.90;;;;;;5122435;27;20027;-63
2024/01/21 02:23:43;;;;;;;11.73;6.43;;;1.50;99.90;;;;;;5144402;27;20038;-64
2024/01/21 02:26:09;;;;;;;11.55;6.57;;;1.50;99.90;;;;;;5142358;27;20042;-63
2024/01/21 02:28:34;;;;;;;10.05;6.22;;;1.50;99.90;;;;;;5138505;27;20031;-64
2024/01/21 02:31:00;;;;;;;9.35;6.10;;;1.50;99.90;;;;;;5130987;27;20043;-64
2024/01/21 02:33:26;;;;;;;10.38;6.03;;;1.50;99.90;;;;;;5145594;27;20503;-64
2024/01/21 02:35:52;;;;;;;10.05;6.00;;;1.50;99.90;;;;;;5144805;27;20042;-65
2024/01/21 02:38:18;;;;;;;11.63;6.82;;;1.60;99.90;;;;;;5140751;27;20038;-64
2024/01/21 02:40:44;;;;;;;11.57;6.40;;;1.50;99.90;;;;;;5121338;27;20498;-63
2024/01/21 02:43:10;;;;;;;8.50;5.30;;;1.60;99.90;;;;;;5144076;27;20378;-63
2024/01/21 02:45:36;;;;;;;11.55;5.68;;;1.60;99.90;;;;;;5141553;27;20080;-63
2024/01/21 02:48:02;;;;;;;8.70;5.53;;;1.60;99.90;;;;;;5142282;27;20042;-64
2024/01/21 02:50:27;;;;;;;9.30;5.20;;;1.50;99.90;;;;;;5148260;27;20046;-64
2024/01/21 02:52:53;;;;;;;8.20;5.75;;;1.60;99.90;;;;;;5156714;27;20062;-63
2024/01/21 02:55:19;;;;;;;9.25;5.18;;;1.60;99.90;;;;;;5151981;27;20030;-64
2024/01/21 02:57:45;;;;;;;10.45;5.43;;;1.60;99.90;;;;;;5155160;27;20035;-64
2024/01/21 03:00:11;;;;;;;8.98;5.32;;;1.60;99.90;;;;;;5150567;27;20069;-64
2024/01/21 03:02:37;;;;;;;9.48;4.80;;;1.70;99.90;;;;;;5153028;27;20042;-64
2024/01/21 03:05:03;;;;;;;10.30;5.35;;;1.70;99.90;;;;;;5129149;27;20033;-63
2024/01/21 03:07:28;;;;;;;9.55;4.70;;;1.70;99.90;;;;;;5153755;27;20354;-65
2024/01/21 03:09:54;;;;;;;9.25;5.75;;;1.70;99.90;;;;;;5142022;27;20039;-63
2024/01/21 03:12:20;;;;;;;7.78;4.60;;;1.70;99.90;;;;;;5142952;27;20582;-64
2024/01/21 03:14:45;;;;;;;8.23;4.25;;;1.70;99.90;;;;;;5145418;27;20110;-64
2024/01/21 03:17:11;;;;;;;9.93;4.47;;;1.70;99.90;;;;;;5143206;27;20035;-64
2024/01/21 03:19:37;;;;;;;8.52;4.57;;;1.70;99.90;;;;;;5149337;27;20053;-64
2024/01/21 03:22:03;;;;;;;7.22;4.07;;;1.70;99.90;;;;;;5141155;27;20047;-64
2024/01/21 03:24:30;;;;;;;8.88;4.43;;;1.70;99.90;;;;;;5148023;27;20038;-64
2024/01/21 03:26:55;;;;;;;9.85;4.93;;;1.70;99.90;;;;;;5123094;27;20046;-64
2024/01/21 03:29:21;;;;;;;7.68;4.18;;;1.70;99.90;;;;;;5144424;27;20034;-64
2024/01/21 03:31:47;;;;;;;7.80;4.40;;;1.70;99.90;;;;;;5136828;27;20043;-64
2024/01/21 03:34:13;;;;;;;7.47;4.40;;;1.70;99.90;;;;;;5143519;27;20061;-64
2024/01/21 03:36:39;;;;;;;7.03;4.45;;;1.70;99.90;;;;;;5136112;27;20047;-62
2024/01/21 03:39:05;;;;;;;6.75;4.13;;;1.70;99.90;;;;;;5144938;27;20039;-64
2024/01/21 03:41:31;;;;;;;7.68;4.00;;;1.70;99.90;;;;;;5144646;27;20035;-64
2024/01/21 03:43:56;;;;;;;5.45;3.72;;;1.60;99.90;;;;;;5142611;27;20274;-64
2024/01/21 03:46:23;;;;;;;6.22;3.72;;;1.60;99.90;;;;;;5155709;27;20038;-64
2024/01/21 03:48:49;;;;;;;5.45;3.78;;;1.60;99.90;;;;;;5151545;27;20088;-64
2024/01/21 03:51:15;;;;;;;8.05;4.03;;;1.60;99.90;;;;;;5145280;27;20034;-65
2024/01/21 03:53:41;;;;;;;7.95;3.47;;;1.60;99.90;;;;;;5149331;27;20034;-64
2024/01/21 03:56:08;;;;;;;5.68;3.67;;;1.50;99.90;;;;;;5138681;27;20683;-64
2024/01/21 03:58:34;;;;;;;7.25;3.83;;;1.60;99.90;;;;;;5141956;27;20113;-64
2024/01/21 04:01:01;;;;;;;7.13;3.33;;;1.50;99.90;;;;;;5141654;27;20074;-63
2024/01/21 04:03:27;;;;;;;4.75;3.15;;;1.40;99.90;;;;;;5142013;27;20106;-63
2024/01/21 04:05:53;;;;;;;6.10;3.58;;;1.50;99.90;;;;;;5134704;27;20039;-64
2024/01/21 04:08:19;;;;;;;4.95;3.08;;;1.40;99.90;;;;;;5132469;27;20043;-64
2024/01/21 04:10:44;;;;;;;6.43;4.13;;;1.40;99.90;;;;;;5146807;27;20042;-63
2024/01/21 04:13:10;;;;;;;7.10;3.17;;;1.40;99.90;;;;;;5144513;27;20169;-64
2024/01/21 04:15:36;;;;;;;7.82;3.50;;;1.40;99.90;;;;;;5144857;27;20174;-64
2024/01/21 04:18:02;;;;;;;5.28;2.80;;;1.40;99.90;;;;;;5127881;27;20078;-64
2024/01/21 04:20:28;;;;;;;5.10;3.40;;;1.50;99.90;;;;;;5148069;27;20098;-63
2024/01/21 04:22:53;;;;;;;6.20;3.38;;;1.50;99.90;;;;;;5139059;27;20038;-63
2024/01/21 04:25:19;;;;;;;5.75;3.03;;;1.50;99.90;;;;;;5140031;27;20027;-63
2024/01/21 04:27:45;;;;;;;5.72;3.25;;;1.40;99.90;;;;;;5134761;27;20131;-64
2024/01/21 04:30:11;;;;;;;7.93;3.03;;;1.50;99.90;;;;;;5134271;27;20030;-64
2024/01/21 04:32:37;;;;;;;4.88;3.00;;;1.50;99.90;;;;;;5114235;27;20035;-64
2024/01/21 04:35:02;;;;;;;5.18;2.97;;;1.50;99.90;;;;;;5144647;27;20046;-64
2024/01/21 04:37:28;;;;;;;7.70;3.33;;;1.50;99.90;;;;;;5140584;27;20039;-64
2024/01/21 04:39:54;;;;;;;4.80;2.47;;;1.60;99.90;;;;;;5154779;27;20030;-64
2024/01/21 04:42:20;;;;;;;5.20;3.15;;;1.60;99.90;;;;;;5126030;27;20505;-64
2024/01/21 04:44:45;;;;;;;8.07;2.88;;;1.60;99.90;;;;;;5139105;27;20575;-64
2024/01/21 04:47:11;;;;;;;4.10;2.78;;;1.60;99.90;;;;;;5143169;27;20045;-64
2024/01/21 04:49:37;;;;;;;4.90;2.60;;;1.70;99.90;;;;;;5147763;27;20182;-64
2024/01/21 04:52:03;;;;;;;8.50;2.45;;;1.70;99.90;;;;;;5114990;27;20066;-64
2024/01/21 04:54:29;;;;;;;4.43;2.45;;;1.80;99.90;;;;;;5136836;27;20026;-64
2024/01/21 04:56:54;;;;;;;5.10;2.25;;;1.90;99.90;;;;;;5144816;27;20555;-64
2024/01/21 04:59:20;;;;;;;4.13;2.28;;;1.90;99.90;;;;;;5142728;27;20122;-63
2024/01/21 05:01:49;;;;;;;7.75;2.42;;;1.90;99.90;;;;;;5147742;27;20043;-63
2024/01/21 05:04:15;;;;;;;;;;;1.90;99.90;;;;;;5152071;27;20043;-63
2024/01/21 05:06:41;;;;;;;3.65;2.30;;;2.00;99.90;;;;;;5153543;27;19962;-63
2024/01/21 05:09:06;;;;;;;5.60;2.55;;;2.00;99.90;;;;;;5153106;27;20057;-63
2024/01/21 05:11:32;;;;;;;4.72;2.35;;;2.00;99.90;;;;;;5144023;27;20105;-63
2024/01/21 05:13:58;;;;;;;4.93;2.58;;;2.00;99.90;;;;;;5162164;27;20042;-62
2024/01/21 05:16:24;;;;;;;4.90;2.40;;;2.00;99.90;;;;;;5144806;27;20035;-64
2024/01/21 05:18:51;;;;;;;3.63;2.25;;;2.00;99.90;;;;;;5154299;27;20039;-63
2024/01/21 05:21:20;;;;;;;4.35;2.38;;;2.00;99.90;;;;;;5149749;27;20059;-63
2024/01/21 05:23:49;;;;;;;5.97;2.47;;;2.00;99.90;;;;;;5123342;27;20043;-63
2024/01/21 05:26:14;;;;;;;4.88;2.40;;;2.00;99.90;;;;;;5144597;27;20038;-63
2024/01/21 05:28:40;;;;;;;7.50;2.45;;;2.10;99.90;;;;;;5147090;27;20629;-62
2024/01/21 05:31:06;;;;;;;4.70;2.63;;;2.00;99.90;;;;;;5143031;27;20039;-63
2024/01/21 05:33:32;;;;;;;9.43;2.63;;;2.00;99.90;;;;;;5143887;27;20601;-63
2024/01/21 05:35:58;;;;;;;3.75;2.10;;;2.10;99.90;;;;;;5133666;27;20035;-62
2024/01/21 05:38:24;;;;;;;3.55;2.20;;;2.30;99.90;;;;;;5145636;27;20038;-64
2024/01/21 05:40:49;;;;;;;5.55;2.80;;;2.20;99.90;;;;;;5143818;27;20126;-63
2024/01/21 05:43:15;;;;;;;5.60;2.38;;;2.20;99.90;;;;;;5145572;27;20026;-63
2024/01/21 05:45:41;;;;;;;4.32;2.20;;;2.20;99.90;;;;;;5137245;27;20042;-63
2024/01/21 05:48:07;;;;;;;5.57;2.13;;;2.30;99.90;;;;;;5146527;27;20510;-62
2024/01/21 05:50:33;;;;;;;4.57;2.72;;;2.30;99.90;;;;;;5143828;27;20042;-64
2024/01/21 05:52:58;;;;;;;3.47;2.08;;;2.30;99.90;;;;;;5145490;27;20082;-63
2024/01/21 05:55:24;;;;;;;5.15;2.85;;;2.30;99.90;;;;;;5138677;27;20141;-63
2024/01/21 05:57:50;;;;;;;4.95;2.20;;;2.30;99.90;;;;;;5144566;27;20039;-63
2024/01/21 06:00:16;;;;;;;3.90;2.20;;;2.30;99.90;;;;;;5142465;27;20073;-63
2024/01/21 06:02:43;;;;;;;3.55;2.60;;;2.30;99.90;;;;;;5145601;27;20502;-64
2024/01/21 06:05:08;;;;;;;7.00;2.78;;;2.30;99.90;;;;;;5139748;27;20031;-63
2024/01/21 06:07:34;;;;;;;4.45;2.72;;;2.30;99.90;;;;;;5142280;27;20045;-63
2024/01/21 06:10:00;;;;;;;4.53;2.85;;;2.40;99.90;;;;;;5141663;27;20042;-63
2024/01/21 06:12:25;;;;;;;6.90;2.78;;;2.40;99.90;;;;;;5143857;27;20775;-65
2024/01/21 06:14:51;;;;;;;3.88;2.67;;;2.40;99.90;;;;;;5143396;27;20050;-66
2024/01/21 06:17:17;;;;;;;4.50;3.00;;;2.40;99.90;;;;;;5148728;27;20043;-64
2024/01/21 06:19:42;;;;;;;4.68;2.85;;;2.40;99.90;;;;;;5156205;27;20103;-65
2024/01/21 06:22:08;;;;;;;7.22;3.30;;;2.30;99.90;;;;;;5160510;27;20064;-64
2024/01/21 06:24:35;;;;;;;5.07;2.92;;;2.40;99.90;;;;;;5135224;27;20043;-64
2024/01/21 06:27:01;;;;;;;4.32;2.90;;;2.30;99.90;;;;;;5156400;27;20603;-64
2024/01/21 06:29:27;;;;;;;5.93;3.20;;;2.40;99.90;;;;;;5154677;27;20278;-64
2024/01/21 06:31:53;;;;;;;8.68;3.60;;;2.40;99.90;;;;;;5146568;27;20038;-63
2024/01/21 06:34:18;;;;;;;4.72;3.08;;;2.30;99.90;;;;;;5156037;27;20035;-64
2024/01/21 06:36:44;;;;;;;6.95;3.75;;;2.30;99.90;;;;;;5150723;27;20038;-64
2024/01/21 06:39:10;;;;;;;5.10;3.15;;;2.30;99.90;;;;;;5149284;27;20042;-63
2024/01/21 06:41:35;;;;;;;4.60;3.20;;;2.40;99.90;;;;;;5145223;27;20043;-63
2024/01/21 06:44:01;;;;;;;4.95;3.40;;;2.30;99.90;;;;;;5146997;27;20139;-63
2024/01/21 06:46:27;;;;;;;5.20;3.40;;;2.20;99.90;;;;;;5148672;27;20042;-63
2024/01/21 06:48:53;;;;;;;5.25;3.30;;;2.30;99.90;;;;;;5147769;27;20043;-63
2024/01/21 06:54:03;;;;;;;5.75;3.78;;;2.20;99.90;;;;;;5141603;27;20042;-63
2024/01/21 06:56:29;;;;;;;8.68;4.13;;;2.30;99.90;;;;;;5145031;27;20047;-63
2024/01/21 06:58:55;;;;;;;5.90;4.43;;;2.20;99.90;;;;;;5146499;27;20043;-63
2024/01/21 07:01:21;;;;;;;6.47;3.63;;;2.20;99.90;;;;;;5144976;27;20102;-63
2024/01/21 07:03:46;;;;;;;5.50;3.85;;;2.20;99.90;;;;;;5144768;27;20616;-62
2024/01/21 07:06:12;;;;;;;6.15;3.30;;;2.20;99.90;;;;;;5143186;27;20046;-63
2024/01/21 07:08:40;;;;;;;5.88;3.95;;;2.20;99.90;;;;;;5144442;27;20346;-63
2024/01/21 07:11:09;;;;;;;6.10;3.85;;;2.20;99.90;;;;;;5144134;27;20034;-62
2024/01/21 07:13:34;;;;;;;7.70;4.45;;;2.20;99.90;;;;;;5146150;27;20030;-62
2024/01/21 07:16:01;;;;;;;7.90;4.50;;;2.20;99.90;;;;;;5144570;27;20657;-63
2024/01/21 07:18:26;;;;;;;6.47;4.15;;;2.70;99.90;;;;;;5145492;27;20030;-64
2024/01/21 07:20:52;;;;;;;6.13;4.18;;;2.20;99.90;;;;;;5143974;27;20501;-63
2024/01/21 07:23:18;;;;;;;6.78;4.03;;;2.20;99.90;;;;;;5144157;27;20035;-63
2024/01/21 07:25:44;;;;;;;6.65;4.45;;;2.10;99.90;;;;;;5140261;27;20050;-64
2024/01/21 07:28:10;;;;;;;5.55;3.83;;;2.20;99.90;;;;;;5143572;27;20064;-63
2024/01/21 07:30:35;;;;;;;7.25;4.53;;;2.20;99.90;;;;;;5142873;27;20266;-63
2024/01/21 07:33:01;;;;;;;10.27;3.97;;;2.20;99.90;;;;;;5145691;27;20034;-63
2024/01/21 07:35:27;;;;;;;8.60;4.40;;;2.20;99.90;;;;;;5143908;27;20047;-63
2024/01/21 07:37:53;;;;;;;9.55;4.35;;;2.20;99.90;;;;;;5142533;27;20034;-63
2024/01/21 07:40:18;;;;;;;6.63;4.00;;;2.30;99.90;;;;;;5144518;27;20039;-63
2024/01/21 07:42:45;;;;;;;6.65;4.32;;;2.20;99.90;;;;;;5142575;27;20089;-63
2024/01/21 07:45:11;;;;;;;5.88;4.05;;;2.20;99.90;;;;;;5143928;27;20478;-62
2024/01/21 07:47:37;;;;;;;7.75;4.70;;;2.30;99.90;;;;;;5124500;27;20047;-63
2024/01/21 07:50:04;;;;;;;8.32;4.32;;;2.30;99.90;;;;;;5143955;27;20038;-62
2024/01/21 07:52:30;;;;;;;7.22;4.70;;;2.30;99.90;;;;;;5143568;27;20384;-63
2024/01/21 07:54:56;;;;;;;6.90;4.00;;;2.30;99.90;;;;;;5143952;27;20292;-63
2024/01/21 07:57:22;;;;;;;7.50;4.43;;;2.20;99.90;;;;;;5144211;27;20067;-62
2024/01/21 07:59:47;;;;;;;8.38;4.68;;;2.30;99.90;;;;;;5143701;27;20049;-62
2024/01/21 08:02:13;;;;;;;6.60;4.30;;;2.20;99.90;;;;;;5142671;27;20084;-63
2024/01/21 08:04:39;;;;;;;10.02;4.57;;;2.20;99.90;;;;;;5145854;27;20494;-62
2024/01/21 08:07:05;;;;;;;9.63;4.68;;;2.30;99.90;;;;;;5142657;27;20034;-63
2024/01/21 08:09:30;;;;;;;6.45;4.18;;;2.20;99.90;;;;;;5142008;27;20043;-63
2024/01/21 08:11:56;;;;;;;8.23;4.68;;;2.30;99.90;;;;;;5143259;27;20039;-63
2024/01/21 08:14:22;;;;;;;6.22;3.95;;;2.30;99.90;;;;;;5144085;27;20064;-63
2024/01/21 08:16:48;;;;;;;6.32;3.72;;;2.40;99.90;;;;;;5143136;27;20499;-63
2024/01/21 08:19:15;;;;;;;7.45;5.13;;;2.40;99.90;;;;;;5142424;27;20031;-63
2024/01/21 08:21:40;;;;;;;7.78;4.30;;;2.40;99.90;;;;;;5142443;27;20167;-63
2024/01/21 08:24:06;;;;;;;9.50;4.68;;;2.40;99.90;;;;;;5143551;27;20035;-63
2024/01/21 08:26:32;;;;;;;7.65;4.15;;;2.40;99.90;;;;;;5139661;27;20496;-64
2024/01/21 08:28:58;;;;;;;11.38;4.88;;;2.50;99.90;;;;;;5124279;27;20050;-63
2024/01/21 08:31:24;;;;;;;7.45;4.57;;;2.50;99.90;;;;;;5120630;27;20043;-63
2024/01/21 08:33:49;;;;;;;7.05;4.47;;;2.50;99.90;;;;;;5143894;27;20118;-63
2024/01/21 08:36:15;;;;;;;8.77;4.38;;;2.50;99.90;;;;;;5142713;27;20462;-63
2024/01/21 08:38:41;;;;;;;9.30;4.53;;;2.50;99.90;;;;;;5141608;27;20042;-64
2024/01/21 08:41:07;;;;;;;7.85;4.75;;;2.50;99.90;;;;;;5142293;27;20982;-64
2024/01/21 08:43:32;;;;;;;7.72;4.65;;;2.60;99.90;;;;;;5142277;27;20426;-65
2024/01/21 08:45:58;;;;;;;7.53;4.70;;;2.60;99.90;;;;;;5141269;27;20045;-64
2024/01/21 08:48:24;;;;;;;7.60;4.70;;;2.60;99.90;;;;;;5141285;27;20134;-64
2024/01/21 08:50:50;;;;;;;7.80;4.22;;;2.60;99.90;;;;;;5143665;27;20042;-64
2024/01/21 08:53:16;;;;;;;7.25;4.50;;;2.70;99.90;;;;;;5142448;27;20043;-64
2024/01/21 08:55:41;;;;;;;6.47;4.63;;;2.70;99.90;;;;;;5142163;27;20276;-64
2024/01/21 08:58:08;;;;;;;8.15;4.65;;;2.70;99.90;;;;;;5140902;27;20462;-66
2024/01/21 09:00:34;;;;;;;6.53;4.70;;;2.70;99.90;;;;;;5142035;27;20050;-65
2024/01/21 09:03:00;;;;;;;9.82;4.70;;;2.80;99.90;;;;;;5143559;27;20034;-65
2024/01/21 09:05:27;;;;;;;8.40;4.63;;;2.80;99.90;;;;;;5140964;27;20074;-64
2024/01/21 09:07:53;;;;;;;6.22;4.55;;;2.80;99.90;;;;;;5141004;27;20555;-64
2024/01/21 09:10:20;;;;;;;10.55;4.95;;;2.80;99.90;;;;;;5141873;27;20042;-64
2024/01/21 09:12:46;;;;;;;7.05;4.68;;;2.80;99.90;;;;;;5142905;27;20622;-64
2024/01/21 09:15:12;;;;;;;9.73;4.72;;;2.90;99.90;;;;;;5142783;27;20034;-65
2024/01/21 09:17:38;;;;;;;7.78;5.05;;;2.80;99.90;;;;;;5141341;27;20520;-64
2024/01/21 09:20:05;;;;;;;7.95;4.97;;;2.80;99.90;;;;;;5106061;27;20050;-64
2024/01/21 09:22:31;;;;;;;9.10;4.65;;;2.80;99.90;;;;;;5138897;27;20144;-65
2024/01/21 09:24:56;;;;;;;10.00;4.53;;;3.00;99.90;;;;;;5141339;27;20031;-65
2024/01/21 09:27:23;;;;;;;13.20;5.78;;;3.00;99.90;;;;;;5138699;27;20039;-65
2024/01/21 09:29:48;;;;;;;7.28;4.68;;;3.00;99.90;;;;;;5141633;27;20299;-64
2024/01/21 09:32:14;;;;;;;8.23;5.13;;;3.00;99.90;;;;;;5120962;27;20118;-65
2024/01/21 09:34:40;;;;;;;9.32;5.15;;;3.10;99.90;;;;;;5139857;27;20035;-65
2024/01/21 09:37:06;;;;;;;6.82;5.03;;;3.10;99.90;;;;;;5138247;27;20038;-64
2024/01/21 09:39:32;;;;;;;9.75;4.70;;;3.20;99.90;;;;;;5140496;27;20046;-65
2024/01/21 09:41:59;;;;;;;9.30;5.05;;;3.20;99.90;;;;;;5142724;27;20030;-63
2024/01/21 09:44:28;;;;;;;10.23;5.50;;;3.20;99.90;;;;;;5139642;27;20575;-63
2024/01/21 09:46:59;;;;;;;8.02;4.93;;;3.30;99.90;;;;;;5141247;27;20034;-64
2024/01/21 09:49:25;;;;;;;9.00;5.03;;;3.30;99.90;;;;;;5140928;27;20047;-63
2024/01/21 09:51:52;;;;;;;9.45;4.97;;;3.30;99.90;;;;;;5137560;27;20030;-63
2024/01/21 09:54:19;;;;;;;9.43;5.40;;;3.40;99.90;;;;;;5140627;27;20045;-63
2024/01/21 09:56:45;;;;;;;8.02;4.85;;;3.40;99.90;;;;;;5141517;27;20190;-62
2024/01/21 09:59:12;;;;;;;10.02;5.45;;;3.40;99.90;;;;;;5139685;27;20493;-64
2024/01/21 10:01:42;;;;;;;8.20;4.68;;;3.50;99.90;;;;;;5139548;27;20098;-64
2024/01/21 10:04:12;;;;;;;7.50;5.25;;;3.50;99.90;;;;;;5141435;27;20038;-64
2024/01/21 10:06:38;;;;;;;7.95;5.65;;;3.50;99.90;;;;;;5139680;27;20044;-63
2024/01/21 10:09:11;;;;;;;9.48;5.55;;;3.60;99.90;;;;;;5141954;27;20058;-64
2024/01/21 10:11:38;;;;;;;8.32;5.25;;;3.60;99.90;;;;;;5138255;27;20059;-64
2024/01/21 10:14:04;;;;;;;8.88;5.57;;;3.60;99.90;;;;;;5141063;27;20160;-64
2024/01/21 10:16:31;;;;;;;9.00;5.93;;;3.70;99.90;;;;;;5137900;27;20046;-64
2024/01/21 10:18:57;;;;;;;9.07;5.55;;;3.70;99.90;;;;;;5141162;27;20050;-64
2024/01/21 10:21:22;;;;;;;9.45;5.60;;;3.70;99.90;;;;;;5139836;27;20026;-64
2024/01/21 10:23:48;;;;;;;10.32;5.50;;;3.80;99.90;;;;;;5141537;27;20402;-63
2024/01/21 10:26:14;;;;;;;10.82;6.38;;;3.90;99.90;;;;;;5139451;27;20102;-64
2024/01/21 10:28:41;;;;;;;8.88;5.80;;;3.90;99.90;;;;;;5138872;27;20124;-63
2024/01/21 10:31:07;;;;;;;10.45;6.35;;;4.00;99.90;;;;;;5138881;27;20042;-64
2024/01/21 10:33:33;;;;;;;9.63;6.30;;;3.50;99.90;;;;;;5136272;27;20436;-63
2024/01/21 10:36:03;;;;;;;8.85;5.70;;;4.10;99.90;;;;;;5138880;27;20089;-64
2024/01/21 10:38:32;;;;;;;;;;;4.10;99.90;;;;;;5140189;27;20502;-63
2024/01/21 10:41:00;;;;;;;9.18;5.35;;;4.10;99.90;;;;;;5121580;27;20445;-64
2024/01/21 10:43:27;;;;;;;13.13;5.65;;;4.10;99.90;;;;;;5137786;27;20030;-63
2024/01/21 10:45:54;;;;;;;11.27;6.57;;;4.10;99.90;;;;;;5140257;27;20509;-63
2024/01/21 10:48:20;;;;;;;11.15;6.40;;;4.10;99.90;;;;;;5137848;27;20125;-64
2024/01/21 10:50:50;;;;;;;9.68;6.55;;;4.10;99.90;;;;;;5140210;27;20040;-64
2024/01/21 10:53:17;;;;;;;9.50;6.55;;;4.10;99.90;;;;;;5141710;27;20046;-65
2024/01/21 10:55:44;;;;;;;11.93;6.68;;;4.10;99.90;;;;;;5141061;27;20055;-65
2024/01/21 10:58:10;;;;;;;10.20;5.70;;;4.20;99.90;;;;;;5141139;27;20050;-64
2024/01/21 11:00:38;;;;;;;9.32;5.95;;;4.20;99.90;;;;;;5141022;27;20042;-65
2024/01/21 11:03:24;;;;;;;8.32;5.38;;;4.30;99.90;;;;;;5144892;27;20735;-62
2024/01/21 11:06:00;;;;;;;11.20;6.63;;;4.20;99.90;;;;;;5143838;27;20549;-65
2024/01/21 11:08:26;;;;;;;11.45;6.05;;;4.20;99.90;;;;;;5142357;27;20150;-63
2024/01/21 11:11:01;;;;;;;9.55;6.45;;;4.20;99.90;;;;;;5143658;27;20034;-62
2024/01/21 11:13:45;;;;;;;9.55;6.47;;;4.20;99.90;;;;;;5142713;27;20038;-62
2024/01/21 11:16:31;;;;;;;8.90;6.57;;;4.30;99.90;;;;;;5142002;27;20074;-62
2024/01/21 11:18:58;;;;;;;9.05;6.00;;;4.30;99.90;;;;;;5086352;27;20062;-62
2024/01/21 11:21:27;;;;;;;10.60;6.20;;;4.40;99.90;;;;;;5137988;27;20054;-65
2024/01/21 11:24:03;;;;;;;8.73;6.00;;;4.40;99.90;;;;;;5133999;27;20613;-63
2024/01/21 11:26:34;;;;;;;9.43;5.88;;;4.40;99.90;;;;;;5143062;27;20534;-63
2024/01/21 11:29:02;;;;;;;11.73;5.65;;;4.40;99.90;;;;;;5139233;27;20045;-63
2024/01/21 11:31:32;;;;;;;11.57;5.95;;;4.40;99.90;;;;;;5141667;27;20038;-63
2024/01/21 11:34:11;;;;;;;9.93;6.13;;;4.40;99.90;;;;;;5141179;27;20043;-64
2024/01/21 11:36:42;;;;;;;9.27;5.90;;;4.50;99.90;;;;;;5143389;27;20074;-63
2024/01/21 11:39:08;;;;;;;10.30;6.20;;;4.40;99.90;;;;;;5137466;27;20510;-63
2024/01/21 11:41:39;;;;;;;9.13;6.20;;;4.40;99.90;;;;;;5123426;27;20030;-63
2024/01/21 11:44:15;;;;;;;9.27;6.35;;;4.40;99.90;;;;;;5143074;27;20529;-63
2024/01/21 11:46:42;;;;;;;10.98;6.10;;;4.40;99.90;;;;;;5144285;27;20494;-63
2024/01/21 11:49:11;;;;;;;9.50;6.25;;;4.40;99.90;;;;;;5142202;27;20124;-63
2024/01/21 11:51:37;;;;;;;;;;;3.80;99.90;;;;;;5141569;27;20041;-64
2024/01/21 11:54:03;;;;;;;9.80;6.53;;;4.50;99.90;;;;;;5143576;27;19923;-63
2024/01/21 11:56:29;;;;;;;10.43;6.45;;;4.50;99.90;;;;;;5144654;27;20034;-63
2024/01/21 11:58:57;;;;;;;11.05;6.68;;;4.50;99.90;;;;;;5141474;27;20092;-63
2024/01/21 12:01:26;;;;;;;11.82;7.32;;;4.50;99.90;;;;;;5143267;27;20113;-64
2024/01/21 12:03:55;;;;;;;9.70;6.50;;;4.50;99.90;;;;;;5143443;27;20033;-65
2024/01/21 12:06:22;;;;;;;10.27;6.97;;;4.50;99.90;;;;;;5142166;27;20461;-63
2024/01/21 12:08:48;;;;;;;10.15;6.45;;;4.50;99.90;;;;;;5143016;27;20031;-63
2024/01/21 12:11:18;;;;;;;12.52;7.10;;;4.50;99.90;;;;;;5141630;27;20489;-63
2024/01/21 12:13:44;;;;;;;10.88;6.85;;;4.50;99.90;;;;;;5141570;27;20154;-64
2024/01/21 12:16:11;;;;;;;11.27;6.00;;;4.50;99.90;;;;;;5139973;27;20030;-62
2024/01/21 12:18:41;;;;;;;10.68;6.45;;;4.50;99.90;;;;;;5141547;27;20129;-62
2024/01/21 12:21:07;;;;;;;9.55;6.50;;;4.50;99.90;;;;;;5142748;27;20042;-63
2024/01/21 12:23:35;;;;;;;10.52;7.30;;;4.50;99.90;;;;;;5140831;27;20083;-63
2024/01/21 12:26:01;;;;;;;11.77;7.30;;;4.50;99.90;;;;;;5139857;27;20045;-64
2024/01/21 12:28:27;;;;;;;12.85;7.05;;;4.60;99.90;;;;;;5123977;27;20126;-65
2024/01/21 12:30:54;;;;;;;9.63;7.43;;;4.50;99.90;;;;;;5125253;27;20067;-64
2024/01/21 12:33:20;;;;;;;11.68;7.45;;;4.50;99.90;;;;;;5142502;27;20200;-66
2024/01/21 12:35:47;;;;;;;10.95;6.55;;;4.60;99.90;;;;;;5143224;27;20446;-64
2024/01/21 12:38:14;;;;;;;9.00;6.78;;;4.60;99.90;;;;;;5142077;27;20189;-64
2024/01/21 12:40:42;;;;;;;11.20;7.07;;;4.50;99.90;;;;;;5141811;27;20601;-63
2024/01/21 12:43:09;;;;;;;15.98;7.68;;;4.60;99.90;;;;;;5140938;27;20031;-63
2024/01/21 12:45:36;;;;;;;10.40;6.75;;;4.50;99.90;;;;;;5142531;27;20042;-63
2024/01/21 12:48:02;;;;;;;10.95;7.20;;;4.50;99.90;;;;;;5142875;27;20038;-63
2024/01/21 12:50:28;;;;;;;11.15;7.45;;;4.50;99.90;;;;;;5142880;27;20062;-63
2024/01/21 12:52:55;;;;;;;14.18;7.60;;;4.60;99.90;;;;;;5142279;27;20034;-63
2024/01/21 12:55:22;;;;;;;9.55;6.80;;;4.60;99.90;;;;;;5143350;27;20034;-64